Time;durP1;ratioP1;P1;durP2;ratioP2;P2;SDS_P1;SDS_P2;PMS_P1;PMS_P2;Temp;Humidity;BMP_temperature;BMP_pressure;BME280_temperature;BME280_humidity;BME280_pressure;Samples;Min_cycle;Max_cycle;Signal;HPM_P1;HPM_P2
2021/12/27 00:02:21;;;;;;;6.38;1.60;;;18.10;99.90;;;;;;5012680;28;20034;-69
2021/12/27 00:04:49;;;;;;;13.32;1.92;;;18.10;99.90;;;;;;5014194;28;20080;-67
2021/12/27 00:07:16;;;;;;;3.97;1.60;;;18.00;99.90;;;;;;5015419;28;20080;-71
2021/12/27 00:09:44;;;;;;;12.63;2.38;;;18.00;99.90;;;;;;5015477;28;20373;-73
2021/12/27 00:12:12;;;;;;;16.50;1.83;;;17.90;99.90;;;;;;5014842;28;20030;-73
2021/12/27 00:14:40;;;;;;;15.45;2.30;;;18.00;99.90;;;;;;5015226;28;20022;-69
2021/12/27 00:17:08;;;;;;;7.50;1.35;;;18.10;99.90;;;;;;5015031;28;20030;-74
2021/12/27 00:19:35;;;;;;;4.40;1.80;;;18.10;99.90;;;;;;5015483;28;20097;-69
2021/12/27 00:22:03;;;;;;;13.15;1.95;;;18.10;99.90;;;;;;5015237;28;20049;-74
2021/12/27 00:24:31;;;;;;;8.40;1.83;;;18.10;99.90;;;;;;5013836;28;20026;-73
2021/12/27 00:26:59;;;;;;;7.40;1.58;;;18.10;99.90;;;;;;5015050;28;20076;-68
2021/12/27 00:29:27;;;;;;;11.15;2.13;;;18.20;99.90;;;;;;5015262;28;20080;-69
2021/12/27 00:31:54;;;;;;;10.70;2.65;;;18.30;99.90;;;;;;5014668;28;20021;-73
2021/12/27 00:34:22;;;;;;;10.82;2.45;;;18.40;99.90;;;;;;5015074;28;20171;-73
2021/12/27 00:36:50;;;;;;;12.70;2.30;;;18.50;99.90;;;;;;5013211;28;20479;-70
2021/12/27 00:39:17;;;;;;;8.77;2.28;;;18.40;99.90;;;;;;5015047;28;20029;-71
2021/12/27 00:41:45;;;;;;;8.80;2.97;;;18.30;99.90;;;;;;5014961;28;20026;-72
2021/12/27 00:44:13;;;;;;;7.55;2.50;;;18.40;99.90;;;;;;5014912;28;20018;-70
2021/12/27 00:46:40;;;;;;;14.68;1.95;;;18.40;99.90;;;;;;5014951;28;20022;-73
2021/12/27 00:49:08;;;;;;;6.88;1.92;;;18.50;99.90;;;;;;5015151;28;20109;-70
2021/12/27 00:51:36;;;;;;;8.88;2.13;;;18.60;99.90;;;;;;5015058;28;20045;-70
2021/12/27 00:54:03;;;;;;;14.57;2.35;;;18.60;99.90;;;;;;5013587;28;20502;-70
2021/12/27 00:56:31;;;;;;;12.30;2.78;;;18.70;99.90;;;;;;5014722;28;20084;-73
2021/12/27 00:58:59;;;;;;;12.35;2.08;;;18.70;99.90;;;;;;5014664;28;20041;-73
2021/12/27 01:01:27;;;;;;;8.93;2.03;;;18.80;99.90;;;;;;5014775;28;20025;-71
2021/12/27 01:03:54;;;;;;;7.53;1.98;;;18.90;99.90;;;;;;5014490;28;20100;-72
2021/12/27 01:06:22;;;;;;;12.75;2.50;;;19.10;99.90;;;;;;5014320;28;20046;-72
2021/12/27 01:08:50;;;;;;;11.93;2.08;;;19.30;99.90;;;;;;5014225;28;20422;-72
2021/12/27 01:11:42;;;;;;;10.05;1.77;;;19.60;99.90;;;;;;5014489;28;20323;-73
2021/12/27 01:14:13;;;;;;;16.80;3.53;;;19.50;99.90;;;;;;5014374;28;20029;-76
2021/12/27 01:16:42;;;;;;;9.20;1.85;;;19.50;99.90;;;;;;5014226;28;20037;-71
2021/12/27 01:19:11;;;;;;;12.55;2.00;;;19.60;99.90;;;;;;5014429;28;20018;-72
2021/12/27 01:21:39;;;;;;;9.82;2.30;;;19.60;99.90;;;;;;5014381;28;20471;-74
2021/12/27 01:24:07;;;;;;;9.70;2.92;;;19.70;99.90;;;;;;5014043;28;20025;-72
2021/12/27 01:26:35;;;;;;;10.82;2.95;;;19.80;99.90;;;;;;5013476;28;20050;-73
2021/12/27 01:29:07;;;;;;;6.35;1.77;;;19.80;99.90;;;;;;5014139;28;20025;-72
2021/12/27 01:31:34;;;;;;;10.02;2.22;;;19.60;99.90;;;;;;5013695;28;20060;-74
2021/12/27 01:34:02;;;;;;;16.88;2.88;;;19.50;99.90;;;;;;5013844;28;20037;-73
2021/12/27 01:36:32;;;;;;;11.20;2.88;;;19.30;99.90;;;;;;5013580;28;20541;-75
2021/12/27 01:39:01;;;;;;;14.15;2.65;;;19.50;99.90;;;;;;5014119;28;20026;-70
2021/12/27 01:41:28;;;;;;;9.57;1.88;;;19.50;99.90;;;;;;5012911;28;20066;-71
2021/12/27 01:43:56;;;;;;;12.10;2.95;;;19.60;99.90;;;;;;5013340;28;20029;-72
2021/12/27 01:46:26;;;;;;;9.95;2.60;;;19.60;99.90;;;;;;5013109;28;20414;-70
2021/12/27 01:48:56;;;;;;;16.23;2.75;;;19.40;99.90;;;;;;5013769;28;20030;-70
2021/12/27 01:51:29;;;;;;;17.38;2.78;;;19.50;99.90;;;;;;5013828;28;20026;-70
2021/12/27 01:53:59;;;;;;;16.27;2.17;;;19.40;99.90;;;;;;5013650;28;20022;-70
2021/12/27 01:56:27;;;;;;;8.68;1.95;;;19.40;99.90;;;;;;5012141;28;20063;-71
2021/12/27 01:58:57;;;;;;;10.50;2.22;;;19.40;99.90;;;;;;5013552;28;20041;-71
2021/12/27 02:01:26;;;;;;;19.80;3.35;;;19.40;99.90;;;;;;5013622;28;20026;-70
2021/12/27 02:03:55;;;;;;;7.28;2.08;;;19.30;99.90;;;;;;5013027;28;20033;-71
2021/12/27 02:06:25;;;;;;;11.98;2.78;;;19.20;99.90;;;;;;5013151;28;20112;-71
2021/12/27 02:08:53;;;;;;;10.52;2.47;;;19.20;99.90;;;;;;5013173;28;20026;-70
2021/12/27 02:11:21;;;;;;;6.50;2.00;;;19.10;99.90;;;;;;5013652;28;20030;-70
2021/12/27 02:13:49;;;;;;;18.35;2.80;;;19.10;99.90;;;;;;5013693;28;20022;-72
2021/12/27 02:16:21;;;;;;;9.88;2.05;;;19.10;99.90;;;;;;5013170;28;20034;-72
2021/12/27 02:18:50;;;;;;;10.50;2.38;;;19.10;99.90;;;;;;5013452;28;20076;-70
2021/12/27 02:21:18;;;;;;;11.80;2.35;;;19.20;99.90;;;;;;5013408;28;20053;-68
2021/12/27 02:23:48;;;;;;;9.23;1.90;;;19.30;99.90;;;;;;5013587;28;20018;-70
2021/12/27 02:26:16;;;;;;;11.55;2.10;;;19.30;99.90;;;;;;5012691;28;20061;-69
2021/12/27 02:28:44;;;;;;;13.90;2.78;;;19.30;99.90;;;;;;5013628;28;20029;-69
2021/12/27 02:31:12;;;;;;;12.32;2.10;;;19.40;99.90;;;;;;5013395;28;20026;-74
2021/12/27 02:33:42;;;;;;;10.93;1.95;;;19.50;99.90;;;;;;5013321;28;20033;-71
2021/12/27 02:36:11;;;;;;;7.97;1.83;;;19.50;99.90;;;;;;5013246;28;20029;-73
2021/12/27 02:38:41;;;;;;;12.52;2.35;;;19.50;99.90;;;;;;5011975;28;20110;-71
2021/12/27 02:41:10;;;;;;;13.52;2.33;;;19.50;99.90;;;;;;5013250;28;20030;-71
2021/12/27 02:43:41;;;;;;;8.98;2.28;;;19.50;99.90;;;;;;5012237;28;20052;-70
2021/12/27 02:46:12;;;;;;;10.73;2.83;;;19.40;99.90;;;;;;5013177;28;20041;-71
2021/12/27 02:48:45;;;;;;;10.00;2.92;;;19.30;99.90;;;;;;5013433;28;20029;-72
2021/12/27 02:51:17;;;;;;;8.27;2.00;;;19.30;99.90;;;;;;5013313;28;20037;-71
2021/12/27 02:53:45;;;;;;;11.57;2.35;;;19.30;99.90;;;;;;5013327;28;20237;-75
2021/12/27 02:56:13;;;;;;;15.27;2.60;;;19.30;99.90;;;;;;5013313;28;20060;-71
2021/12/27 02:58:41;;;;;;;13.38;2.03;;;19.20;99.90;;;;;;5013070;28;20025;-71
2021/12/27 03:01:21;;;;;;;7.95;1.63;;;19.10;99.90;;;;;;5013104;28;20054;-71
2021/12/27 03:03:49;;;;;;;8.68;2.42;;;19.10;99.90;;;;;;5012141;28;20418;-71
2021/12/27 03:06:17;;;;;;;9.15;2.50;;;19.10;99.90;;;;;;5012945;28;20022;-72
2021/12/27 03:08:46;;;;;;;9.52;2.72;;;19.20;99.90;;;;;;5013144;28;20383;-71
2021/12/27 03:11:14;;;;;;;9.68;1.67;;;19.20;99.90;;;;;;5013070;28;20033;-71
2021/12/27 03:13:47;;;;;;;11.77;2.42;;;19.30;99.90;;;;;;5012527;28;20034;-72
2021/12/27 03:16:17;;;;;;;13.75;3.00;;;19.20;99.90;;;;;;5001142;28;20450;-72
2021/12/27 03:18:49;;;;;;;9.15;2.10;;;19.10;99.90;;;;;;5002896;28;20080;-70
2021/12/27 03:21:17;;;;;;;9.18;2.75;;;19.20;99.90;;;;;;5001085;28;20030;-73
2021/12/27 03:23:46;;;;;;;14.48;3.08;;;19.10;99.90;;;;;;5004891;28;20026;-70
2021/12/27 03:26:14;;;;;;;9.38;2.10;;;19.10;99.90;;;;;;5006783;28;20077;-71
2021/12/27 03:28:42;;;;;;;14.65;3.25;;;19.10;99.90;;;;;;5005518;28;20034;-70
2021/12/27 03:31:11;;;;;;;8.45;2.55;;;19.10;99.90;;;;;;5005514;28;20101;-69
2021/12/27 03:33:42;;;;;;;11.38;2.40;;;19.10;99.90;;;;;;5005661;28;20482;-70
2021/12/27 03:36:09;;;;;;;5.22;1.67;;;19.10;99.90;;;;;;5006510;28;20538;-70
2021/12/27 03:38:41;;;;;;;12.00;2.13;;;19.10;99.90;;;;;;5004482;28;20073;-68
2021/12/27 03:41:14;;;;;;;10.18;2.05;;;19.10;99.90;;;;;;5004448;28;20043;-76
2021/12/27 03:43:43;;;;;;;6.20;1.67;;;19.10;99.90;;;;;;5011238;28;20025;-72
2021/12/27 03:46:11;;;;;;;9.55;2.20;;;19.10;99.90;;;;;;5015616;28;20100;-71
2021/12/27 03:48:39;;;;;;;7.50;1.70;;;19.20;99.90;;;;;;5014067;28;20018;-71
2021/12/27 03:51:07;;;;;;;9.98;1.75;;;19.30;99.90;;;;;;5005706;28;20491;-73
2021/12/27 03:53:35;;;;;;;9.77;1.73;;;19.40;99.90;;;;;;5004732;28;20033;-73
2021/12/27 03:56:08;;;;;;;5.88;1.40;;;19.70;99.90;;;;;;4997845;28;20406;-77
2021/12/27 03:58:53;;;;;;;9.38;1.45;;;19.80;99.90;;;;;;5003956;28;20014;-76
2021/12/27 04:01:23;;;;;;;8.45;1.80;;;19.80;99.90;;;;;;5003048;28;20084;-75
2021/12/27 04:03:54;;;;;;;7.45;1.48;;;19.80;99.90;;;;;;5004742;28;20077;-72
2021/12/27 04:06:25;;;;;;;10.13;1.67;;;19.60;99.90;;;;;;5002698;28;20422;-75
2021/12/27 04:08:53;;;;;;;4.20;1.45;;;19.40;99.90;;;;;;5003953;28;20049;-73
2021/12/27 04:11:21;;;;;;;14.57;1.90;;;19.40;99.90;;;;;;5002022;28;20050;-77
2021/12/27 04:13:48;;;;;;;9.52;1.50;;;19.50;99.90;;;;;;5004280;28;20026;-78
2021/12/27 04:16:16;;;;;;;5.45;0.88;;;19.50;99.90;;;;;;5004589;28;20052;-75
2021/12/27 04:18:44;;;;;;;5.70;1.05;;;19.50;99.90;;;;;;5015848;28;20037;-75
2021/12/27 04:21:11;;;;;;;6.53;1.73;;;19.40;99.90;;;;;;5015620;28;20022;-73
2021/12/27 04:23:39;;;;;;;5.47;0.90;;;19.40;99.90;;;;;;5015270;28;20441;-72
2021/12/27 04:26:07;;;;;;;7.55;1.95;;;19.50;99.90;;;;;;5014091;28;20128;-74
2021/12/27 04:28:35;;;;;;;4.10;0.80;;;19.30;99.90;;;;;;5014563;28;20113;-68
2021/12/27 04:31:03;;;;;;;5.82;1.02;;;19.40;99.90;;;;;;5014839;28;20042;-74
2021/12/27 04:33:30;;;;;;;6.28;0.75;;;19.50;99.90;;;;;;5015159;28;20105;-69
2021/12/27 04:35:58;;;;;;;3.33;0.68;;;19.70;99.90;;;;;;5014846;28;20100;-71
2021/12/27 04:38:26;;;;;;;5.00;1.00;;;19.80;99.90;;;;;;5015232;28;20378;-70
2021/12/27 04:40:54;;;;;;;4.55;1.55;;;19.90;99.90;;;;;;5014961;28;20144;-71
2021/12/27 04:43:24;;;;;;;3.22;0.55;;;20.30;99.90;;;;;;5014979;28;20029;-72
2021/12/27 04:45:56;;;;;;;2.40;1.15;;;20.70;99.90;;;;;;5013452;28;20058;-71
2021/12/27 04:48:26;;;;;;;5.00;1.00;;;20.70;99.90;;;;;;5014933;28;20022;-73
2021/12/27 04:50:54;;;;;;;3.10;0.85;;;20.50;99.90;;;;;;5014943;28;20068;-69
2021/12/27 04:53:21;;;;;;;3.28;1.10;;;20.30;99.90;;;;;;5014764;28;20018;-69
2021/12/27 04:55:49;;;;;;;4.57;1.13;;;20.40;99.90;;;;;;5014688;28;20034;-70
2021/12/27 04:58:20;;;;;;;5.07;0.98;;;20.60;99.90;;;;;;5014716;28;20034;-69
2021/12/27 05:00:49;;;;;;;2.63;0.77;;;20.50;99.90;;;;;;5014868;28;20049;-72
2021/12/27 05:03:17;;;;;;;5.53;1.27;;;20.30;99.90;;;;;;5014083;28;20025;-70
2021/12/27 05:05:47;;;;;;;2.25;0.60;;;20.30;99.90;;;;;;5014365;28;20862;-70
2021/12/27 05:08:14;;;;;;;3.72;0.73;;;20.40;99.90;;;;;;5014498;28;20029;-70
2021/12/27 05:10:42;;;;;;;2.13;0.47;;;20.40;99.90;;;;;;5014558;28;20026;-70
2021/12/27 05:13:10;;;;;;;2.72;0.60;;;20.70;99.90;;;;;;5013942;28;20036;-70
2021/12/27 05:15:37;;;;;;;6.38;1.15;;;20.80;99.90;;;;;;5014501;28;20022;-69
2021/12/27 05:18:05;;;;;;;1.38;0.82;;;20.60;99.90;;;;;;5014429;28;20033;-71
2021/12/27 05:20:33;;;;;;;4.35;0.60;;;20.30;99.90;;;;;;5014232;28;20029;-71
2021/12/27 05:23:01;;;;;;;5.72;0.32;;;19.90;99.90;;;;;;5014169;28;20030;-70
2021/12/27 05:25:28;;;;;;;3.45;1.45;;;19.70;99.90;;;;;;5013932;28;20026;-69
2021/12/27 05:27:55;;;;;;;7.38;0.95;;;19.60;99.90;;;;;;5014353;28;20034;-70
2021/12/27 05:30:23;;;;;;;3.45;0.95;;;19.70;99.90;;;;;;5014458;28;20014;-69
2021/12/27 05:32:50;;;;;;;2.88;0.77;;;19.90;99.90;;;;;;5014099;28;20025;-69
2021/12/27 05:35:18;;;;;;;9.93;1.20;;;20.50;99.90;;;;;;5013945;28;20029;-70
2021/12/27 05:37:46;;;;;;;2.28;0.90;;;21.00;99.90;;;;;;5007622;28;20046;-70
2021/12/27 05:40:22;;;;;;;3.72;0.70;;;21.10;99.90;;;;;;5002138;28;20044;-70
2021/12/27 05:42:50;;;;;;;;;;;20.90;99.90;;;;;;5001892;28;20022;-70
2021/12/27 05:45:18;;;;;;;1.63;0.60;;;20.60;99.90;;;;;;5002379;28;19906;-70
2021/12/27 05:47:46;;;;;;;1.77;0.50;;;20.20;99.90;;;;;;5003989;28;20029;-69
2021/12/27 05:50:15;;;;;;;0.90;0.30;;;19.50;99.90;;;;;;5003115;28;20518;-71
2021/12/27 05:52:42;;;;;;;2.17;0.60;;;18.70;99.90;;;;;;5002436;28;20352;-71
2021/12/27 05:55:11;;;;;;;2.78;0.80;;;18.00;99.90;;;;;;5003632;28;20088;-70
2021/12/27 05:57:39;;;;;;;2.45;0.35;;;17.80;99.90;;;;;;5004349;28;20041;-74
2021/12/27 06:00:09;;;;;;;1.27;0.50;;;17.50;99.90;;;;;;4999516;28;20494;-72
2021/12/27 06:02:37;;;;;;;3.60;0.70;;;17.40;99.90;;;;;;5002512;28;20029;-71
2021/12/27 06:05:05;;;;;;;2.58;0.63;;;17.40;99.90;;;;;;4999284;28;20613;-73
2021/12/27 06:07:32;;;;;;;7.13;0.85;;;17.30;99.90;;;;;;5004095;28;20028;-73
2021/12/27 06:09:59;;;;;;;6.72;1.27;;;17.20;99.90;;;;;;4996481;28;20471;-72
2021/12/27 06:12:27;;;;;;;6.18;1.02;;;17.00;99.90;;;;;;4994980;28;20109;-72
2021/12/27 06:14:54;;;;;;;4.63;1.00;;;16.90;99.90;;;;;;5001236;28;20054;-75
2021/12/27 06:17:22;;;;;;;4.80;1.02;;;16.80;99.90;;;;;;5002026;28;20080;-74
2021/12/27 06:19:49;;;;;;;11.30;1.73;;;16.90;99.90;;;;;;5010287;28;20073;-77
2021/12/27 06:22:17;;;;;;;5.30;0.88;;;16.90;99.90;;;;;;5005128;28;20515;-74
2021/12/27 06:24:45;;;;;;;4.85;1.42;;;16.90;99.90;;;;;;5002251;28;20061;-74
2021/12/27 06:27:12;;;;;;;6.95;1.10;;;17.00;99.90;;;;;;5005820;28;20104;-71
2021/12/27 06:29:39;;;;;;;6.10;1.10;;;17.20;99.90;;;;;;4995486;28;20491;-71
2021/12/27 06:32:13;;;;;;;8.00;1.35;;;17.20;99.90;;;;;;5005940;28;20022;-72
2021/12/27 06:34:41;;;;;;;13.25;2.17;;;17.20;99.90;;;;;;5002344;28;20109;-71
2021/12/27 06:37:09;;;;;;;7.80;1.95;;;17.30;99.90;;;;;;5001951;28;20037;-71
2021/12/27 06:39:36;;;;;;;9.00;2.10;;;17.30;99.90;;;;;;4997469;28;20378;-74
2021/12/27 06:42:05;;;;;;;9.40;1.45;;;17.20;99.90;;;;;;4994821;28;20096;-71
2021/12/27 06:44:33;;;;;;;9.43;1.98;;;17.20;99.90;;;;;;4992996;28;20104;-72
2021/12/27 06:47:01;;;;;;;8.98;1.63;;;17.20;99.90;;;;;;4997903;28;20570;-72
2021/12/27 06:49:29;;;;;;;10.05;1.52;;;17.10;99.90;;;;;;4998786;28;20166;-72
2021/12/27 06:51:56;;;;;;;9.95;1.65;;;17.20;99.90;;;;;;4999146;28;20382;-73
2021/12/27 06:54:24;;;;;;;19.85;2.00;;;17.00;99.90;;;;;;4998789;28;20489;-71
2021/12/27 06:56:52;;;;;;;9.38;1.58;;;16.80;99.90;;;;;;4999493;28;20039;-72
2021/12/27 06:59:19;;;;;;;11.40;2.38;;;16.70;99.90;;;;;;5005550;28;20030;-71
2021/12/27 07:01:47;;;;;;;10.68;2.00;;;16.70;99.90;;;;;;5007217;28;20033;-71
2021/12/27 07:04:14;;;;;;;7.00;1.42;;;16.70;99.90;;;;;;5006921;28;20524;-72
2021/12/27 07:06:41;;;;;;;11.95;2.38;;;16.60;99.90;;;;;;5005614;28;20094;-71
2021/12/27 07:09:08;;;;;;;6.25;1.77;;;16.60;99.90;;;;;;5006843;28;20080;-70
2021/12/27 07:11:36;;;;;;;6.88;1.45;;;16.70;99.90;;;;;;5007156;28;20018;-74
2021/12/27 07:14:05;;;;;;;7.00;1.80;;;16.60;99.90;;;;;;5004016;28;20065;-74
2021/12/27 07:16:32;;;;;;;13.15;2.30;;;16.70;99.90;;;;;;5006286;28;20030;-73
2021/12/27 07:19:00;;;;;;;9.63;1.70;;;16.60;99.90;;;;;;5007111;28;20494;-73
2021/12/27 07:21:27;;;;;;;8.98;1.60;;;16.60;99.90;;;;;;5005846;28;20073;-73
2021/12/27 07:23:54;;;;;;;12.90;2.63;;;16.50;99.90;;;;;;5006000;28;20040;-73
2021/12/27 07:26:22;;;;;;;6.85;2.05;;;16.60;99.90;;;;;;5007201;28;20046;-72
2021/12/27 07:28:49;;;;;;;8.27;1.40;;;16.80;99.90;;;;;;5006066;28;20054;-72
2021/12/27 07:31:16;;;;;;;8.73;2.13;;;16.70;99.90;;;;;;5005457;28;20026;-72
2021/12/27 07:33:44;;;;;;;7.43;1.90;;;16.70;99.90;;;;;;5007584;28;20121;-73
2021/12/27 07:36:11;;;;;;;6.57;2.17;;;16.70;99.90;;;;;;5006299;28;20026;-72
2021/12/27 07:38:40;;;;;;;7.50;1.60;;;16.60;99.90;;;;;;5005290;28;20018;-72
2021/12/27 07:41:08;;;;;;;7.60;1.65;;;16.70;99.90;;;;;;5003555;28;20019;-73
2021/12/27 07:43:36;;;;;;;7.75;1.88;;;16.80;99.90;;;;;;5005440;28;20101;-73
2021/12/27 07:46:03;;;;;;;10.35;2.17;;;16.70;99.90;;;;;;5006718;28;20574;-71
2021/12/27 07:48:31;;;;;;;6.53;1.92;;;16.70;99.90;;;;;;5004374;28;20030;-75
2021/12/27 07:50:58;;;;;;;11.88;2.83;;;16.70;99.90;;;;;;5006163;28;20029;-73
2021/12/27 07:53:25;;;;;;;7.35;2.17;;;16.60;99.90;;;;;;5006394;28;20503;-72
2021/12/27 07:55:53;;;;;;;11.75;1.98;;;16.60;99.90;;;;;;5004600;28;20108;-77
2021/12/27 07:58:20;;;;;;;11.27;2.58;;;16.50;99.90;;;;;;5005786;28;20054;-72
2021/12/27 08:00:50;;;;;;;15.02;2.38;;;16.40;99.90;;;;;;5009423;28;20018;-73
2021/12/27 08:03:21;;;;;;;13.02;1.95;;;16.40;99.90;;;;;;5015703;28;20041;-73
2021/12/27 08:05:49;;;;;;;12.85;2.20;;;16.40;99.90;;;;;;5015681;28;20029;-73
2021/12/27 08:08:17;;;;;;;14.70;3.03;;;16.50;99.90;;;;;;5015801;28;20378;-72
2021/12/27 08:10:44;;;;;;;13.40;2.08;;;16.40;99.90;;;;;;5014906;28;20052;-72
2021/12/27 08:13:12;;;;;;;9.02;2.25;;;16.30;99.90;;;;;;5015560;28;20364;-72
2021/12/27 08:15:39;;;;;;;13.13;2.15;;;16.30;99.90;;;;;;5015638;28;20030;-72
2021/12/27 08:18:07;;;;;;;10.63;2.15;;;16.30;99.90;;;;;;5015558;28;20382;-73
2021/12/27 08:20:34;;;;;;;13.55;2.20;;;16.30;99.90;;;;;;5015613;28;20048;-73
2021/12/27 08:23:01;;;;;;;9.40;2.03;;;16.30;99.90;;;;;;5015545;28;20497;-74
2021/12/27 08:25:29;;;;;;;12.38;2.67;;;16.20;99.90;;;;;;5015232;28;20057;-73
2021/12/27 08:27:56;;;;;;;9.95;1.58;;;16.30;99.90;;;;;;5015398;28;20022;-74
2021/12/27 08:30:24;;;;;;;10.77;2.38;;;16.20;99.90;;;;;;5015283;28;20053;-72
2021/12/27 08:32:52;;;;;;;22.25;2.20;;;16.20;99.90;;;;;;5015327;28;20379;-72
2021/12/27 08:35:20;;;;;;;7.80;1.60;;;16.20;99.90;;;;;;5015321;28;20028;-73
2021/12/27 08:37:47;;;;;;;8.75;1.95;;;16.20;99.90;;;;;;5015332;28;20483;-72
2021/12/27 08:40:15;;;;;;;10.90;1.77;;;16.20;99.90;;;;;;5015103;28;20050;-72
2021/12/27 08:42:43;;;;;;;10.65;2.50;;;16.20;99.90;;;;;;5002562;28;20026;-72
2021/12/27 08:45:12;;;;;;;13.45;2.15;;;16.20;99.90;;;;;;4996277;28;20018;-75
2021/12/27 08:47:40;;;;;;;7.78;1.65;;;16.20;99.90;;;;;;5011839;28;20426;-73
2021/12/27 08:50:09;;;;;;;5.82;1.65;;;16.10;99.90;;;;;;5005952;28;20026;-72
2021/12/27 08:52:36;;;;;;;5.25;1.58;;;16.10;99.90;;;;;;5003382;28;20026;-72
2021/12/27 08:55:04;;;;;;;12.13;2.10;;;16.10;99.90;;;;;;5005242;28;20021;-71
2021/12/27 08:57:32;;;;;;;11.63;2.08;;;16.10;99.90;;;;;;5005398;28;20030;-73
2021/12/27 09:00:01;;;;;;;7.15;1.92;;;16.10;99.90;;;;;;5005217;28;20023;-71
2021/12/27 09:02:28;;;;;;;13.15;2.30;;;16.10;99.90;;;;;;5003311;28;20387;-71
2021/12/27 09:04:55;;;;;;;13.63;2.15;;;16.10;99.90;;;;;;5004476;28;20014;-74
2021/12/27 09:07:23;;;;;;;11.60;2.65;;;16.20;99.90;;;;;;5005186;28;20019;-72
2021/12/27 09:09:50;;;;;;;9.60;1.90;;;16.10;99.90;;;;;;5006762;28;20556;-71
2021/12/27 09:12:17;;;;;;;6.00;1.92;;;16.10;99.90;;;;;;5013207;28;20371;-72
2021/12/27 09:14:45;;;;;;;9.27;1.85;;;16.10;99.90;;;;;;5014711;28;20033;-72
2021/12/27 09:17:12;;;;;;;9.00;1.52;;;16.20;99.90;;;;;;5014722;28;20030;-71
2021/12/27 09:19:39;;;;;;;12.43;2.25;;;16.20;99.90;;;;;;5014368;28;20058;-71
2021/12/27 09:22:07;;;;;;;9.73;2.45;;;16.20;99.90;;;;;;5014078;28;20026;-72
2021/12/27 09:24:34;;;;;;;7.45;2.38;;;16.10;99.90;;;;;;5014315;28;20029;-74
2021/12/27 09:27:05;;;;;;;9.75;1.80;;;16.10;99.90;;;;;;5013905;28;20045;-70
2021/12/27 09:29:35;;;;;;;15.00;2.83;;;16.10;99.90;;;;;;5014753;28;20359;-69
2021/12/27 09:32:03;;;;;;;11.60;1.98;;;16.10;99.90;;;;;;5014402;28;20022;-71
2021/12/27 09:34:31;;;;;;;11.38;2.05;;;16.00;99.90;;;;;;5014030;28;20049;-71
2021/12/27 09:36:58;;;;;;;12.07;2.58;;;16.00;99.90;;;;;;5003721;28;20388;-70
2021/12/27 09:39:26;;;;;;;14.38;2.80;;;16.10;99.90;;;;;;4982940;28;20452;-72
2021/12/27 09:41:53;;;;;;;10.77;2.58;;;16.00;99.90;;;;;;4990984;28;20027;-70
2021/12/27 09:44:20;;;;;;;11.95;3.00;;;16.00;99.90;;;;;;4982771;28;20019;-71
2021/12/27 09:46:48;;;;;;;11.23;2.35;;;16.10;99.90;;;;;;4972922;28;20031;-71
2021/12/27 09:49:17;;;;;;;10.32;1.35;;;16.10;99.90;;;;;;4973717;28;20043;-72
2021/12/27 09:51:45;;;;;;;9.38;1.85;;;16.00;99.90;;;;;;4973893;28;20027;-71
2021/12/27 09:54:13;;;;;;;10.98;2.38;;;16.00;99.90;;;;;;4973765;28;20491;-71
2021/12/27 09:56:41;;;;;;;8.73;2.40;;;16.10;99.90;;;;;;4973671;28;20033;-70
2021/12/27 09:59:09;;;;;;;7.38;1.33;;;16.10;99.90;;;;;;4973822;28;20034;-70
2021/12/27 10:01:36;;;;;;;12.15;1.95;;;16.10;99.90;;;;;;4972854;28;20027;-70
2021/12/27 10:04:04;;;;;;;10.77;1.95;;;16.10;99.90;;;;;;4973245;28;20166;-71
2021/12/27 10:06:32;;;;;;;8.27;2.30;;;16.10;99.90;;;;;;4973536;28;20026;-70
2021/12/27 10:09:01;;;;;;;5.38;1.25;;;16.00;99.90;;;;;;4973628;28;20026;-70
2021/12/27 10:11:32;;;;;;;10.20;1.33;;;16.00;99.90;;;;;;4973601;28;20153;-70
2021/12/27 10:14:11;;;;;;;9.68;1.73;;;16.00;99.90;;;;;;4973661;28;20105;-70
2021/12/27 10:16:51;;;;;;;9.90;1.15;;;16.00;99.90;;;;;;4972943;28;20019;-71
2021/12/27 10:19:19;;;;;;;11.55;2.00;;;16.00;99.90;;;;;;4972733;28;20026;-70
2021/12/27 10:21:49;;;;;;;5.70;1.67;;;16.00;99.90;;;;;;4972663;28;20011;-71
2021/12/27 10:24:20;;;;;;;9.02;2.13;;;15.90;99.90;;;;;;4972910;28;20027;-72
2021/12/27 10:26:52;;;;;;;8.68;1.92;;;15.90;99.90;;;;;;4973340;28;20166;-72
2021/12/27 10:29:25;;;;;;;6.32;1.60;;;15.80;99.90;;;;;;4973625;28;20050;-72
2021/12/27 10:32:04;;;;;;;5.65;1.38;;;15.80;99.90;;;;;;4973340;28;20026;-72
2021/12/27 10:34:46;;;;;;;9.25;1.50;;;15.80;99.90;;;;;;4977511;28;20018;-71
2021/12/27 10:37:16;;;;;;;10.45;1.98;;;15.80;99.90;;;;;;4977306;28;20031;-71
2021/12/27 10:40:01;;;;;;;9.43;1.67;;;15.70;99.90;;;;;;4977228;28;20041;-71
2021/12/27 10:42:35;;;;;;;5.45;1.13;;;15.70;99.90;;;;;;4976746;28;20023;-70
2021/12/27 10:45:13;;;;;;;7.00;1.60;;;15.70;99.90;;;;;;4983807;28;20439;-74
2021/12/27 10:47:54;;;;;;;9.40;1.95;;;15.70;99.90;;;;;;4983750;28;20018;-74
2021/12/27 10:50:33;;;;;;;12.45;1.60;;;15.80;99.90;;;;;;4976497;28;20113;-74
2021/12/27 10:53:03;;;;;;;7.70;1.75;;;15.80;99.90;;;;;;4975246;28;20037;-72
2021/12/27 10:55:38;;;;;;;9.02;1.50;;;15.80;99.90;;;;;;4976688;28;20018;-73
2021/12/27 10:58:24;;;;;;;7.47;2.27;;;15.80;99.90;;;;;;4977091;28;20443;-72
2021/12/27 11:00:51;;;;;;;14.45;1.30;;;15.80;99.90;;;;;;4977065;28;20019;-71
2021/12/27 11:03:34;;;;;;;9.07;1.85;;;15.80;99.90;;;;;;4991690;28;20223;-72
2021/12/27 11:06:03;;;;;;;8.85;1.48;;;15.80;99.90;;;;;;4976890;28;20375;-71
2021/12/27 11:08:32;;;;;;;11.07;2.00;;;15.80;99.90;;;;;;4976991;28;20062;-71
2021/12/27 11:11:00;;;;;;;11.48;2.08;;;15.80;99.90;;;;;;4976622;28;20026;-71
2021/12/27 11:13:29;;;;;;;9.10;2.25;;;15.80;99.90;;;;;;4976950;28;20026;-72
2021/12/27 11:15:57;;;;;;;6.95;1.75;;;15.90;99.90;;;;;;4976958;28;20030;-71
2021/12/27 11:18:25;;;;;;;9.85;2.33;;;15.80;99.90;;;;;;4976357;28;20054;-71
2021/12/27 11:20:56;;;;;;;7.57;1.65;;;15.90;99.90;;;;;;4979922;28;20037;-72
2021/12/27 11:23:24;;;;;;;11.52;1.63;;;15.80;99.90;;;;;;4976718;28;20077;-71
2021/12/27 11:26:05;;;;;;;13.82;1.95;;;15.90;99.90;;;;;;4976604;28;20098;-74
2021/12/27 11:28:40;;;;;;;12.80;1.65;;;15.90;99.90;;;;;;4976847;28;20027;-73
2021/12/27 11:31:28;;;;;;;6.72;1.20;;;15.80;99.90;;;;;;4978391;28;20090;-71
2021/12/27 11:33:56;;;;;;;16.20;1.50;;;15.90;99.90;;;;;;4976268;28;20038;-72
2021/12/27 11:36:26;;;;;;;13.13;1.63;;;15.90;99.90;;;;;;4985436;28;20113;-72
2021/12/27 11:38:54;;;;;;;9.35;1.45;;;15.90;99.90;;;;;;4988600;28;20080;-71
2021/12/27 11:41:36;;;;;;;8.00;1.27;;;15.80;99.90;;;;;;4988322;28;20030;-71
2021/12/27 11:44:20;;;;;;;7.15;1.17;;;15.80;99.90;;;;;;4989354;28;20055;-73
2021/12/27 11:46:51;;;;;;;9.20;1.42;;;15.70;99.90;;;;;;4989385;28;20019;-71
2021/12/27 11:49:34;;;;;;;5.07;1.33;;;15.70;99.90;;;;;;4988176;28;20022;-73
2021/12/27 11:52:26;;;;;;;8.20;1.08;;;15.70;99.90;;;;;;4989682;28;20081;-72
2021/12/27 11:54:59;;;;;;;4.60;1.17;;;15.60;99.90;;;;;;4989696;28;20114;-74
2021/12/27 11:57:56;;;;;;;9.77;1.40;;;15.70;99.90;;;;;;4989387;28;20042;-71
2021/12/27 12:00:29;;;;;;;8.52;1.70;;;15.70;99.90;;;;;;4988720;28;20026;-73
2021/12/27 12:03:02;;;;;;;5.93;2.40;;;15.60;99.90;;;;;;4989076;28;20479;-71
2021/12/27 12:05:43;;;;;;;7.47;1.23;;;15.70;99.90;;;;;;4988930;28;20031;-71
2021/12/27 12:08:14;;;;;;;6.03;1.80;;;15.70;99.90;;;;;;4988977;28;20090;-73
2021/12/27 12:10:58;;;;;;;5.63;1.55;;;15.70;99.90;;;;;;4980397;28;20105;-72
2021/12/27 12:13:42;;;;;;;9.10;1.40;;;15.70;99.90;;;;;;4973861;28;20041;-72
2021/12/27 12:16:13;;;;;;;8.57;1.25;;;15.70;99.90;;;;;;4984614;28;20018;-70
2021/12/27 12:19:04;;;;;;;5.43;1.25;;;15.70;99.90;;;;;;4989885;28;20093;-71
2021/12/27 12:21:34;;;;;;;10.00;2.00;;;15.70;99.90;;;;;;4984981;28;20089;-70
2021/12/27 12:24:13;;;;;;;5.28;1.00;;;15.70;99.90;;;;;;4995229;28;20014;-70
2021/12/27 12:26:56;;;;;;;2.70;0.88;;;15.70;99.90;;;;;;4995044;28;20065;-71
2021/12/27 12:29:25;;;;;;;4.55;1.38;;;15.70;99.90;;;;;;4994924;28;20074;-71
2021/12/27 12:31:59;;;;;;;6.68;1.55;;;15.70;99.90;;;;;;4995153;28;20349;-71
2021/12/27 12:34:27;;;;;;;5.78;1.85;;;15.70;99.90;;;;;;4995129;28;20391;-71
2021/12/27 12:37:10;;;;;;;3.97;1.15;;;15.70;99.90;;;;;;4994936;28;20038;-71
2021/12/27 12:39:46;;;;;;;3.58;0.70;;;15.70;99.90;;;;;;4994971;28;20018;-71
2021/12/27 12:42:17;;;;;;;4.35;1.55;;;15.70;99.90;;;;;;4994859;28;20379;-71
2021/12/27 12:45:02;;;;;;;5.65;1.58;;;15.70;99.90;;;;;;4994997;28;20483;-71
2021/12/27 12:47:38;;;;;;;8.18;1.88;;;15.70;99.90;;;;;;4994785;28;20018;-71
2021/12/27 12:50:22;;;;;;;9.10;1.60;;;15.70;99.90;;;;;;4994715;28;20018;-70
2021/12/27 12:52:58;;;;;;;8.80;1.33;;;15.60;99.90;;;;;;4994600;28;20430;-70
2021/12/27 12:55:27;;;;;;;;;;;15.70;99.90;;;;;;4994697;28;20054;-70
2021/12/27 12:57:55;;;;;;;5.88;1.30;;;15.70;99.90;;;;;;4996013;28;20349;-70